sensor_id;sensor_type;location;lat;lon;timestamp;P1;durP1;ratioP1;P2;durP2;ratioP2
12407;SDS011;6268;48.188;17.134;2023-11-19T00:00:21;4.40;;;4.00;;
12407;SDS011;6268;48.188;17.134;2023-11-19T00:02:50;4.40;;;4.00;;
12407;SDS011;6268;48.188;17.134;2023-11-19T00:05:18;3.93;;;3.63;;
12407;SDS011;6268;48.188;17.134;2023-11-19T00:07:47;3.20;;;3.00;;
12407;SDS011;6268;48.188;17.134;2023-11-19T00:10:16;4.83;;;4.40;;
12407;SDS011;6268;48.188;17.134;2023-11-19T00:12:46;8.90;;;6.50;;
12407;SDS011;6268;48.188;17.134;2023-11-19T00:15:16;8.73;;;7.03;;
12407;SDS011;6268;48.188;17.134;2023-11-19T00:17:47;8.07;;;6.20;;
12407;SDS011;6268;48.188;17.134;2023-11-19T00:20:17;6.67;;;5.93;;
12407;SDS011;6268;48.188;17.134;2023-11-19T00:22:46;7.60;;;6.40;;
12407;SDS011;6268;48.188;17.134;2023-11-19T00:25:18;8.40;;;6.23;;
12407;SDS011;6268;48.188;17.134;2023-11-19T00:27:48;6.00;;;5.50;;
12407;SDS011;6268;48.188;17.134;2023-11-19T00:30:17;7.83;;;6.00;;
12407;SDS011;6268;48.188;17.134;2023-11-19T00:32:47;6.33;;;5.73;;
12407;SDS011;6268;48.188;17.134;2023-11-19T00:35:16;6.30;;;5.70;;
12407;SDS011;6268;48.188;17.134;2023-11-19T00:37:44;7.27;;;4.83;;
12407;SDS011;6268;48.188;17.134;2023-11-19T00:40:14;4.93;;;4.47;;
12407;SDS011;6268;48.188;17.134;2023-11-19T00:42:45;5.57;;;4.83;;
12407;SDS011;6268;48.188;17.134;2023-11-19T00:45:14;5.10;;;4.67;;
12407;SDS011;6268;48.188;17.134;2023-11-19T00:47:43;6.57;;;5.37;;
12407;SDS011;6268;48.188;17.134;2023-11-19T00:50:12;7.73;;;5.67;;
12407;SDS011;6268;48.188;17.134;2023-11-19T00:52:41;6.40;;;5.60;;
12407;SDS011;6268;48.188;17.134;2023-11-19T00:55:09;5.80;;;5.30;;
12407;SDS011;6268;48.188;17.134;2023-11-19T00:57:38;5.33;;;4.83;;
12407;SDS011;6268;48.188;17.134;2023-11-19T01:00:06;5.53;;;4.97;;
12407;SDS011;6268;48.188;17.134;2023-11-19T01:02:46;7.43;;;5.07;;
12407;SDS011;6268;48.188;17.134;2023-11-19T01:05:19;5.17;;;4.60;;
12407;SDS011;6268;48.188;17.134;2023-11-19T01:07:50;6.17;;;5.57;;
12407;SDS011;6268;48.188;17.134;2023-11-19T01:10:21;7.03;;;5.80;;
12407;SDS011;6268;48.188;17.134;2023-11-19T01:12:50;6.00;;;5.40;;
12407;SDS011;6268;48.188;17.134;2023-11-19T01:15:19;6.50;;;5.90;;
12407;SDS011;6268;48.188;17.134;2023-11-19T01:17:49;6.73;;;6.00;;
12407;SDS011;6268;48.188;17.134;2023-11-19T01:20:21;6.33;;;5.70;;
12407;SDS011;6268;48.188;17.134;2023-11-19T01:22:49;6.73;;;6.00;;
12407;SDS011;6268;48.188;17.134;2023-11-19T01:25:18;8.23;;;5.97;;
12407;SDS011;6268;48.188;17.134;2023-11-19T01:27:47;6.27;;;5.57;;
12407;SDS011;6268;48.188;17.134;2023-11-19T01:30:16;7.50;;;5.50;;
12407;SDS011;6268;48.188;17.134;2023-11-19T01:32:46;6.70;;;5.43;;
12407;SDS011;6268;48.188;17.134;2023-11-19T01:35:15;6.07;;;5.47;;
12407;SDS011;6268;48.188;17.134;2023-11-19T01:37:44;4.90;;;4.50;;
12407;SDS011;6268;48.188;17.134;2023-11-19T01:40:13;6.03;;;5.30;;
12407;SDS011;6268;48.188;17.134;2023-11-19T01:42:43;6.30;;;4.97;;
12407;SDS011;6268;48.188;17.134;2023-11-19T01:45:11;6.00;;;5.27;;
12407;SDS011;6268;48.188;17.134;2023-11-19T01:47:49;6.13;;;5.53;;
12407;SDS011;6268;48.188;17.134;2023-11-19T01:50:19;5.87;;;5.37;;
12407;SDS011;6268;48.188;17.134;2023-11-19T01:52:49;8.47;;;5.37;;
12407;SDS011;6268;48.188;17.134;2023-11-19T01:55:18;7.23;;;5.27;;
12407;SDS011;6268;48.188;17.134;2023-11-19T01:57:47;5.67;;;5.20;;
12407;SDS011;6268;48.188;17.134;2023-11-19T02:00:17;5.80;;;5.13;;
12407;SDS011;6268;48.188;17.134;2023-11-19T02:02:46;7.97;;;5.47;;
12407;SDS011;6268;48.188;17.134;2023-11-19T02:05:16;5.50;;;4.90;;
12407;SDS011;6268;48.188;17.134;2023-11-19T02:07:45;5.40;;;5.00;;
12407;SDS011;6268;48.188;17.134;2023-11-19T02:10:15;5.70;;;4.93;;
12407;SDS011;6268;48.188;17.134;2023-11-19T02:12:45;5.63;;;5.13;;
12407;SDS011;6268;48.188;17.134;2023-11-19T02:15:14;5.50;;;5.00;;
12407;SDS011;6268;48.188;17.134;2023-11-19T02:17:45;5.30;;;4.80;;
12407;SDS011;6268;48.188;17.134;2023-11-19T02:20:13;6.07;;;5.43;;
12407;SDS011;6268;48.188;17.134;2023-11-19T02:22:42;5.93;;;5.30;;
12407;SDS011;6268;48.188;17.134;2023-11-19T02:25:12;6.47;;;5.37;;
12407;SDS011;6268;48.188;17.134;2023-11-19T02:27:51;5.77;;;5.10;;
12407;SDS011;6268;48.188;17.134;2023-11-19T02:30:23;7.87;;;5.60;;
12407;SDS011;6268;48.188;17.134;2023-11-19T02:32:53;5.60;;;5.10;;
12407;SDS011;6268;48.188;17.134;2023-11-19T02:35:23;5.67;;;4.93;;
12407;SDS011;6268;48.188;17.134;2023-11-19T02:37:52;5.50;;;5.00;;
12407;SDS011;6268;48.188;17.134;2023-11-19T02:40:21;5.17;;;4.77;;
12407;SDS011;6268;48.188;17.134;2023-11-19T02:42:52;7.60;;;5.47;;
12407;SDS011;6268;48.188;17.134;2023-11-19T02:45:22;5.73;;;5.07;;
12407;SDS011;6268;48.188;17.134;2023-11-19T02:47:51;5.43;;;4.90;;
12407;SDS011;6268;48.188;17.134;2023-11-19T02:50:21;5.77;;;5.17;;
12407;SDS011;6268;48.188;17.134;2023-11-19T02:52:53;5.17;;;4.67;;
12407;SDS011;6268;48.188;17.134;2023-11-19T02:55:23;5.70;;;5.20;;
12407;SDS011;6268;48.188;17.134;2023-11-19T02:57:56;5.43;;;4.93;;
12407;SDS011;6268;48.188;17.134;2023-11-19T03:00:26;6.50;;;5.60;;
12407;SDS011;6268;48.188;17.134;2023-11-19T03:03:02;5.93;;;5.07;;
12407;SDS011;6268;48.188;17.134;2023-11-19T03:05:45;6.10;;;5.50;;
12407;SDS011;6268;48.188;17.134;2023-11-19T03:08:14;5.37;;;4.87;;
12407;SDS011;6268;48.188;17.134;2023-11-19T03:10:46;5.40;;;4.90;;
12407;SDS011;6268;48.188;17.134;2023-11-19T03:13:16;6.13;;;5.57;;
12407;SDS011;6268;48.188;17.134;2023-11-19T03:15:45;6.33;;;5.73;;
12407;SDS011;6268;48.188;17.134;2023-11-19T03:18:14;6.20;;;5.60;;
12407;SDS011;6268;48.188;17.134;2023-11-19T03:20:42;7.73;;;6.97;;
12407;SDS011;6268;48.188;17.134;2023-11-19T03:23:11;9.77;;;8.33;;
12407;SDS011;6268;48.188;17.134;2023-11-19T03:25:39;12.03;;;9.63;;
12407;SDS011;6268;48.188;17.134;2023-11-19T03:28:08;14.27;;;10.97;;
12407;SDS011;6268;48.188;17.134;2023-11-19T03:30:39;15.50;;;10.73;;
12407;SDS011;6268;48.188;17.134;2023-11-19T03:33:07;12.03;;;9.33;;
12407;SDS011;6268;48.188;17.134;2023-11-19T03:35:36;8.93;;;7.60;;
12407;SDS011;6268;48.188;17.134;2023-11-19T03:38:05;9.73;;;8.73;;
12407;SDS011;6268;48.188;17.134;2023-11-19T03:40:33;12.33;;;8.00;;
12407;SDS011;6268;48.188;17.134;2023-11-19T03:43:02;11.97;;;9.37;;
12407;SDS011;6268;48.188;17.134;2023-11-19T03:45:30;10.87;;;9.00;;
12407;SDS011;6268;48.188;17.134;2023-11-19T03:48:00;10.53;;;8.20;;
12407;SDS011;6268;48.188;17.134;2023-11-19T03:50:29;10.00;;;7.90;;
12407;SDS011;6268;48.188;17.134;2023-11-19T03:52:57;10.57;;;8.30;;
12407;SDS011;6268;48.188;17.134;2023-11-19T03:55:25;9.23;;;7.63;;
12407;SDS011;6268;48.188;17.134;2023-11-19T03:57:54;10.37;;;8.20;;
12407;SDS011;6268;48.188;17.134;2023-11-19T04:00:22;10.33;;;8.77;;
12407;SDS011;6268;48.188;17.134;2023-11-19T04:02:51;11.20;;;8.57;;
12407;SDS011;6268;48.188;17.134;2023-11-19T04:05:20;11.77;;;8.73;;
12407;SDS011;6268;48.188;17.134;2023-11-19T04:07:49;8.63;;;7.60;;
12407;SDS011;6268;48.188;17.134;2023-11-19T04:10:17;10.73;;;8.07;;
12407;SDS011;6268;48.188;17.134;2023-11-19T04:12:47;10.43;;;7.87;;
12407;SDS011;6268;48.188;17.134;2023-11-19T04:15:15;10.53;;;8.77;;
12407;SDS011;6268;48.188;17.134;2023-11-19T04:17:44;9.83;;;8.60;;
12407;SDS011;6268;48.188;17.134;2023-11-19T04:20:12;9.77;;;8.43;;
12407;SDS011;6268;48.188;17.134;2023-11-19T04:22:42;9.97;;;8.50;;
12407;SDS011;6268;48.188;17.134;2023-11-19T04:25:11;11.70;;;8.80;;
12407;SDS011;6268;48.188;17.134;2023-11-19T04:27:40;11.13;;;9.00;;
12407;SDS011;6268;48.188;17.134;2023-11-19T04:30:09;9.67;;;8.47;;
12407;SDS011;6268;48.188;17.134;2023-11-19T04:32:38;9.03;;;8.13;;
12407;SDS011;6268;48.188;17.134;2023-11-19T04:35:07;8.30;;;7.37;;
12407;SDS011;6268;48.188;17.134;2023-11-19T04:37:36;10.87;;;8.03;;
12407;SDS011;6268;48.188;17.134;2023-11-19T04:40:07;8.40;;;7.53;;
12407;SDS011;6268;48.188;17.134;2023-11-19T04:42:36;9.03;;;7.57;;
12407;SDS011;6268;48.188;17.134;2023-11-19T04:45:07;8.97;;;7.33;;
12407;SDS011;6268;48.188;17.134;2023-11-19T04:47:37;8.27;;;7.30;;
12407;SDS011;6268;48.188;17.134;2023-11-19T04:50:06;9.73;;;8.00;;
12407;SDS011;6268;48.188;17.134;2023-11-19T04:52:37;8.17;;;7.40;;
12407;SDS011;6268;48.188;17.134;2023-11-19T04:55:10;8.07;;;7.17;;
12407;SDS011;6268;48.188;17.134;2023-11-19T04:57:41;10.07;;;7.43;;
12407;SDS011;6268;48.188;17.134;2023-11-19T05:00:10;9.40;;;7.20;;
12407;SDS011;6268;48.188;17.134;2023-11-19T05:02:43;8.83;;;8.03;;
12407;SDS011;6268;48.188;17.134;2023-11-19T05:05:12;9.27;;;8.37;;
12407;SDS011;6268;48.188;17.134;2023-11-19T05:07:40;11.50;;;7.90;;
12407;SDS011;6268;48.188;17.134;2023-11-19T05:10:10;23.17;;;15.60;;
12407;SDS011;6268;48.188;17.134;2023-11-19T05:12:39;14.67;;;11.40;;
12407;SDS011;6268;48.188;17.134;2023-11-19T05:15:08;10.17;;;8.87;;
12407;SDS011;6268;48.188;17.134;2023-11-19T05:17:38;9.90;;;8.90;;
12407;SDS011;6268;48.188;17.134;2023-11-19T05:20:07;12.97;;;9.43;;
12407;SDS011;6268;48.188;17.134;2023-11-19T05:22:40;9.70;;;8.70;;
12407;SDS011;6268;48.188;17.134;2023-11-19T05:25:08;10.70;;;8.77;;
12407;SDS011;6268;48.188;17.134;2023-11-19T05:27:38;10.90;;;8.97;;
12407;SDS011;6268;48.188;17.134;2023-11-19T05:30:07;10.23;;;8.27;;
12407;SDS011;6268;48.188;17.134;2023-11-19T05:32:37;10.23;;;8.53;;
12407;SDS011;6268;48.188;17.134;2023-11-19T05:35:07;9.07;;;8.07;;
12407;SDS011;6268;48.188;17.134;2023-11-19T05:37:36;9.43;;;8.17;;
12407;SDS011;6268;48.188;17.134;2023-11-19T05:40:05;9.53;;;8.47;;
12407;SDS011;6268;48.188;17.134;2023-11-19T05:42:43;14.17;;;10.37;;
12407;SDS011;6268;48.188;17.134;2023-11-19T05:45:12;16.20;;;10.27;;
12407;SDS011;6268;48.188;17.134;2023-11-19T05:47:41;13.83;;;10.67;;
12407;SDS011;6268;48.188;17.134;2023-11-19T05:50:10;13.70;;;9.17;;
12407;SDS011;6268;48.188;17.134;2023-11-19T05:52:39;15.90;;;10.20;;
12407;SDS011;6268;48.188;17.134;2023-11-19T05:55:07;13.50;;;9.57;;
12407;SDS011;6268;48.188;17.134;2023-11-19T05:57:37;15.10;;;9.47;;
12407;SDS011;6268;48.188;17.134;2023-11-19T06:00:12;19.27;;;10.40;;
12407;SDS011;6268;48.188;17.134;2023-11-19T06:02:42;17.27;;;11.17;;
12407;SDS011;6268;48.188;17.134;2023-11-19T06:05:10;17.50;;;10.20;;
12407;SDS011;6268;48.188;17.134;2023-11-19T06:07:39;17.23;;;11.53;;
12407;SDS011;6268;48.188;17.134;2023-11-19T06:10:08;15.27;;;11.50;;
12407;SDS011;6268;48.188;17.134;2023-11-19T06:12:37;17.27;;;10.73;;
12407;SDS011;6268;48.188;17.134;2023-11-19T06:15:08;14.50;;;10.17;;
12407;SDS011;6268;48.188;17.134;2023-11-19T06:17:38;11.87;;;9.50;;
12407;SDS011;6268;48.188;17.134;2023-11-19T06:20:07;9.47;;;7.90;;
12407;SDS011;6268;48.188;17.134;2023-11-19T06:22:38;7.23;;;6.53;;
12407;SDS011;6268;48.188;17.134;2023-11-19T06:25:08;14.87;;;8.10;;
12407;SDS011;6268;48.188;17.134;2023-11-19T06:27:37;8.83;;;7.47;;
12407;SDS011;6268;48.188;17.134;2023-11-19T06:30:06;9.03;;;7.63;;
12407;SDS011;6268;48.188;17.134;2023-11-19T06:32:35;8.13;;;7.23;;
12407;SDS011;6268;48.188;17.134;2023-11-19T06:35:05;9.40;;;7.73;;
12407;SDS011;6268;48.188;17.134;2023-11-19T06:37:34;9.37;;;7.93;;
12407;SDS011;6268;48.188;17.134;2023-11-19T06:40:03;8.70;;;7.83;;
12407;SDS011;6268;48.188;17.134;2023-11-19T06:42:33;11.33;;;7.87;;
12407;SDS011;6268;48.188;17.134;2023-11-19T06:45:01;12.37;;;8.90;;
12407;SDS011;6268;48.188;17.134;2023-11-19T06:47:30;10.73;;;8.13;;
12407;SDS011;6268;48.188;17.134;2023-11-19T06:49:58;10.63;;;8.37;;
12407;SDS011;6268;48.188;17.134;2023-11-19T06:52:28;26.17;;;20.93;;
12407;SDS011;6268;48.188;17.134;2023-11-19T06:54:57;13.13;;;10.13;;
12407;SDS011;6268;48.188;17.134;2023-11-19T06:57:28;12.57;;;9.83;;
12407;SDS011;6268;48.188;17.134;2023-11-19T06:59:58;11.47;;;9.00;;
12407;SDS011;6268;48.188;17.134;2023-11-19T07:02:27;11.80;;;8.33;;
12407;SDS011;6268;48.188;17.134;2023-11-19T07:04:56;9.17;;;8.10;;
12407;SDS011;6268;48.188;17.134;2023-11-19T07:07:24;10.30;;;8.33;;
12407;SDS011;6268;48.188;17.134;2023-11-19T07:09:54;12.23;;;9.53;;
12407;SDS011;6268;48.188;17.134;2023-11-19T07:12:23;10.77;;;8.93;;
12407;SDS011;6268;48.188;17.134;2023-11-19T07:14:53;12.07;;;8.53;;
12407;SDS011;6268;48.188;17.134;2023-11-19T07:17:22;10.47;;;8.90;;
12407;SDS011;6268;48.188;17.134;2023-11-19T07:19:51;10.10;;;9.10;;
12407;SDS011;6268;48.188;17.134;2023-11-19T07:22:21;10.10;;;9.03;;
12407;SDS011;6268;48.188;17.134;2023-11-19T07:24:49;9.30;;;8.40;;
12407;SDS011;6268;48.188;17.134;2023-11-19T07:27:19;11.17;;;9.33;;
12407;SDS011;6268;48.188;17.134;2023-11-19T07:29:48;12.17;;;10.10;;
12407;SDS011;6268;48.188;17.134;2023-11-19T07:32:16;9.90;;;9.00;;
12407;SDS011;6268;48.188;17.134;2023-11-19T07:34:44;11.47;;;9.93;;
12407;SDS011;6268;48.188;17.134;2023-11-19T07:37:13;12.60;;;9.73;;
12407;SDS011;6268;48.188;17.134;2023-11-19T07:39:43;12.77;;;9.97;;
12407;SDS011;6268;48.188;17.134;2023-11-19T07:42:11;10.80;;;9.10;;
12407;SDS011;6268;48.188;17.134;2023-11-19T07:44:42;9.83;;;8.80;;
12407;SDS011;6268;48.188;17.134;2023-11-19T07:47:11;11.37;;;9.50;;
12407;SDS011;6268;48.188;17.134;2023-11-19T07:49:40;13.83;;;9.03;;
12407;SDS011;6268;48.188;17.134;2023-11-19T07:52:11;11.07;;;9.30;;
12407;SDS011;6268;48.188;17.134;2023-11-19T07:54:42;9.73;;;8.43;;
12407;SDS011;6268;48.188;17.134;2023-11-19T07:57:11;10.03;;;8.80;;
12407;SDS011;6268;48.188;17.134;2023-11-19T07:59:39;12.13;;;9.63;;
12407;SDS011;6268;48.188;17.134;2023-11-19T08:02:09;13.20;;;9.10;;
12407;SDS011;6268;48.188;17.134;2023-11-19T08:04:37;13.10;;;10.20;;
12407;SDS011;6268;48.188;17.134;2023-11-19T08:07:11;13.63;;;11.43;;
12407;SDS011;6268;48.188;17.134;2023-11-19T08:09:40;10.20;;;9.10;;
12407;SDS011;6268;48.188;17.134;2023-11-19T08:12:08;11.33;;;9.93;;
12407;SDS011;6268;48.188;17.134;2023-11-19T08:14:36;11.07;;;9.53;;
12407;SDS011;6268;48.188;17.134;2023-11-19T08:17:07;10.97;;;9.70;;
12407;SDS011;6268;48.188;17.134;2023-11-19T08:19:35;10.67;;;8.67;;
12407;SDS011;6268;48.188;17.134;2023-11-19T08:22:03;11.37;;;8.90;;
12407;SDS011;6268;48.188;17.134;2023-11-19T08:24:32;10.70;;;9.00;;
12407;SDS011;6268;48.188;17.134;2023-11-19T08:27:00;12.43;;;9.47;;
12407;SDS011;6268;48.188;17.134;2023-11-19T08:29:29;10.03;;;8.97;;
12407;SDS011;6268;48.188;17.134;2023-11-19T08:31:59;10.67;;;9.10;;
12407;SDS011;6268;48.188;17.134;2023-11-19T08:34:30;11.50;;;10.37;;
12407;SDS011;6268;48.188;17.134;2023-11-19T08:36:58;10.60;;;9.50;;
12407;SDS011;6268;48.188;17.134;2023-11-19T08:39:27;11.03;;;9.93;;
12407;SDS011;6268;48.188;17.134;2023-11-19T08:41:57;11.57;;;9.10;;
12407;SDS011;6268;48.188;17.134;2023-11-19T08:44:25;11.63;;;9.70;;
12407;SDS011;6268;48.188;17.134;2023-11-19T08:46:54;10.77;;;9.67;;
12407;SDS011;6268;48.188;17.134;2023-11-19T08:49:22;10.30;;;9.30;;
12407;SDS011;6268;48.188;17.134;2023-11-19T08:51:52;11.43;;;9.77;;
12407;SDS011;6268;48.188;17.134;2023-11-19T08:54:20;12.27;;;10.43;;
12407;SDS011;6268;48.188;17.134;2023-11-19T08:56:49;10.73;;;8.83;;
12407;SDS011;6268;48.188;17.134;2023-11-19T08:59:18;9.23;;;8.33;;
12407;SDS011;6268;48.188;17.134;2023-11-19T09:01:46;19.07;;;16.90;;
12407;SDS011;6268;48.188;17.134;2023-11-19T09:04:15;13.53;;;11.63;;
12407;SDS011;6268;48.188;17.134;2023-11-19T09:06:44;13.97;;;11.47;;
12407;SDS011;6268;48.188;17.134;2023-11-19T09:09:13;13.90;;;11.47;;
12407;SDS011;6268;48.188;17.134;2023-11-19T09:11:42;13.07;;;11.10;;
12407;SDS011;6268;48.188;17.134;2023-11-19T09:14:10;12.07;;;10.43;;
12407;SDS011;6268;48.188;17.134;2023-11-19T09:16:39;9.30;;;8.33;;
12407;SDS011;6268;48.188;17.134;2023-11-19T09:19:07;12.47;;;10.40;;
12407;SDS011;6268;48.188;17.134;2023-11-19T09:21:36;11.50;;;10.03;;
12407;SDS011;6268;48.188;17.134;2023-11-19T09:24:05;15.80;;;12.47;;
12407;SDS011;6268;48.188;17.134;2023-11-19T09:26:36;14.47;;;11.87;;
12407;SDS011;6268;48.188;17.134;2023-11-19T09:29:06;10.37;;;9.30;;
12407;SDS011;6268;48.188;17.134;2023-11-19T09:31:35;10.50;;;9.00;;
12407;SDS011;6268;48.188;17.134;2023-11-19T09:34:05;11.80;;;9.50;;
12407;SDS011;6268;48.188;17.134;2023-11-19T09:36:34;9.87;;;8.87;;
12407;SDS011;6268;48.188;17.134;2023-11-19T09:39:02;13.77;;;10.87;;
12407;SDS011;6268;48.188;17.134;2023-11-19T09:41:31;13.10;;;10.50;;
12407;SDS011;6268;48.188;17.134;2023-11-19T09:44:02;14.17;;;11.60;;
12407;SDS011;6268;48.188;17.134;2023-11-19T09:46:31;12.87;;;10.87;;
12407;SDS011;6268;48.188;17.134;2023-11-19T09:49:00;11.20;;;9.97;;
12407;SDS011;6268;48.188;17.134;2023-11-19T09:51:34;14.10;;;11.40;;
12407;SDS011;6268;48.188;17.134;2023-11-19T09:54:02;15.57;;;11.23;;
12407;SDS011;6268;48.188;17.134;2023-11-19T09:56:31;10.47;;;9.47;;
12407;SDS011;6268;48.188;17.134;2023-11-19T09:59:00;9.40;;;7.97;;
12407;SDS011;6268;48.188;17.134;2023-11-19T10:01:31;9.30;;;8.23;;
12407;SDS011;6268;48.188;17.134;2023-11-19T10:03:59;12.87;;;10.53;;
12407;SDS011;6268;48.188;17.134;2023-11-19T10:06:29;10.93;;;9.83;;
12407;SDS011;6268;48.188;17.134;2023-11-19T10:08:57;12.20;;;10.83;;
12407;SDS011;6268;48.188;17.134;2023-11-19T10:11:26;11.53;;;9.63;;
12407;SDS011;6268;48.188;17.134;2023-11-19T10:13:54;15.00;;;12.43;;
12407;SDS011;6268;48.188;17.134;2023-11-19T10:16:29;11.00;;;9.57;;
12407;SDS011;6268;48.188;17.134;2023-11-19T10:18:59;36.33;;;31.57;;
12407;SDS011;6268;48.188;17.134;2023-11-19T10:21:27;17.07;;;13.90;;
12407;SDS011;6268;48.188;17.134;2023-11-19T10:23:58;14.10;;;11.20;;
12407;SDS011;6268;48.188;17.134;2023-11-19T10:26:27;9.40;;;8.40;;
12407;SDS011;6268;48.188;17.134;2023-11-19T10:28:56;11.20;;;9.33;;
12407;SDS011;6268;48.188;17.134;2023-11-19T10:31:25;9.57;;;8.53;;
12407;SDS011;6268;48.188;17.134;2023-11-19T10:33:55;9.07;;;8.20;;
12407;SDS011;6268;48.188;17.134;2023-11-19T10:36:26;8.97;;;7.63;;
12407;SDS011;6268;48.188;17.134;2023-11-19T10:39:07;8.27;;;7.57;;
12407;SDS011;6268;48.188;17.134;2023-11-19T10:41:36;8.50;;;7.70;;
12407;SDS011;6268;48.188;17.134;2023-11-19T10:44:05;8.67;;;7.87;;
12407;SDS011;6268;48.188;17.134;2023-11-19T10:46:36;8.07;;;7.27;;
12407;SDS011;6268;48.188;17.134;2023-11-19T10:49:08;8.30;;;7.50;;
12407;SDS011;6268;48.188;17.134;2023-11-19T10:51:37;10.70;;;8.70;;
12407;SDS011;6268;48.188;17.134;2023-11-19T10:54:12;11.20;;;9.00;;
12407;SDS011;6268;48.188;17.134;2023-11-19T10:56:44;9.47;;;8.47;;
12407;SDS011;6268;48.188;17.134;2023-11-19T10:59:18;9.90;;;8.77;;
12407;SDS011;6268;48.188;17.134;2023-11-19T11:01:53;9.73;;;8.73;;
12407;SDS011;6268;48.188;17.134;2023-11-19T11:04:24;13.20;;;11.03;;
12407;SDS011;6268;48.188;17.134;2023-11-19T11:06:54;11.07;;;9.67;;
12407;SDS011;6268;48.188;17.134;2023-11-19T11:09:25;8.60;;;7.70;;
12407;SDS011;6268;48.188;17.134;2023-11-19T11:11:55;8.67;;;7.87;;
12407;SDS011;6268;48.188;17.134;2023-11-19T11:14:24;11.07;;;9.37;;
12407;SDS011;6268;48.188;17.134;2023-11-19T11:16:54;10.67;;;9.57;;
12407;SDS011;6268;48.188;17.134;2023-11-19T11:19:27;11.47;;;9.70;;
12407;SDS011;6268;48.188;17.134;2023-11-19T11:21:55;9.67;;;8.67;;
12407;SDS011;6268;48.188;17.134;2023-11-19T11:24:28;9.40;;;8.40;;
12407;SDS011;6268;48.188;17.134;2023-11-19T11:27:16;10.17;;;9.10;;
12407;SDS011;6268;48.188;17.134;2023-11-19T11:30:06;8.87;;;7.97;;
12407;SDS011;6268;48.188;17.134;2023-11-19T11:32:50;8.90;;;8.00;;
12407;SDS011;6268;48.188;17.134;2023-11-19T11:35:33;8.70;;;7.90;;
12407;SDS011;6268;48.188;17.134;2023-11-19T11:38:11;11.40;;;9.03;;
12407;SDS011;6268;48.188;17.134;2023-11-19T11:40:43;14.30;;;12.90;;
12407;SDS011;6268;48.188;17.134;2023-11-19T11:43:46;12.83;;;11.53;;
12407;SDS011;6268;48.188;17.134;2023-11-19T11:49:25;9.37;;;8.00;;
12407;SDS011;6268;48.188;17.134;2023-11-19T11:52:04;8.43;;;7.63;;
12407;SDS011;6268;48.188;17.134;2023-11-19T11:54:32;9.63;;;8.53;;
12407;SDS011;6268;48.188;17.134;2023-11-19T11:57:03;8.47;;;7.23;;
12407;SDS011;6268;48.188;17.134;2023-11-19T11:59:43;11.87;;;10.30;;
12407;SDS011;6268;48.188;17.134;2023-11-19T12:02:14;9.40;;;8.47;;
12407;SDS011;6268;48.188;17.134;2023-11-19T12:04:47;9.57;;;8.00;;
12407;SDS011;6268;48.188;17.134;2023-11-19T12:07:19;8.70;;;7.83;;
12407;SDS011;6268;48.188;17.134;2023-11-19T12:09:51;8.57;;;7.67;;
12407;SDS011;6268;48.188;17.134;2023-11-19T12:12:22;10.20;;;9.20;;
12407;SDS011;6268;48.188;17.134;2023-11-19T12:15:00;9.37;;;7.90;;
12407;SDS011;6268;48.188;17.134;2023-11-19T12:17:37;9.53;;;8.53;;
12407;SDS011;6268;48.188;17.134;2023-11-19T12:20:11;9.23;;;8.33;;
12407;SDS011;6268;48.188;17.134;2023-11-19T12:22:42;9.53;;;8.53;;
12407;SDS011;6268;48.188;17.134;2023-11-19T12:25:12;10.27;;;8.43;;
12407;SDS011;6268;48.188;17.134;2023-11-19T12:27:43;12.83;;;9.57;;
12407;SDS011;6268;48.188;17.134;2023-11-19T12:30:14;9.10;;;8.30;;
12407;SDS011;6268;48.188;17.134;2023-11-19T12:32:45;9.60;;;8.60;;
12407;SDS011;6268;48.188;17.134;2023-11-19T12:35:13;9.53;;;8.63;;
12407;SDS011;6268;48.188;17.134;2023-11-19T12:37:44;10.77;;;9.67;;
12407;SDS011;6268;48.188;17.134;2023-11-19T12:40:17;9.00;;;8.10;;
12407;SDS011;6268;48.188;17.134;2023-11-19T12:42:47;8.60;;;7.80;;
12407;SDS011;6268;48.188;17.134;2023-11-19T12:45:16;9.37;;;8.43;;
12407;SDS011;6268;48.188;17.134;2023-11-19T12:47:47;9.77;;;8.77;;
12407;SDS011;6268;48.188;17.134;2023-11-19T12:50:16;11.83;;;8.33;;
12407;SDS011;6268;48.188;17.134;2023-11-19T12:52:56;8.60;;;7.70;;
12407;SDS011;6268;48.188;17.134;2023-11-19T12:55:25;9.20;;;8.30;;
12407;SDS011;6268;48.188;17.134;2023-11-19T12:57:56;9.07;;;8.20;;
12407;SDS011;6268;48.188;17.134;2023-11-19T13:00:26;9.00;;;8.17;;
12407;SDS011;6268;48.188;17.134;2023-11-19T13:02:56;8.67;;;7.97;;
12407;SDS011;6268;48.188;17.134;2023-11-19T13:05:26;8.83;;;8.03;;
12407;SDS011;6268;48.188;17.134;2023-11-19T13:08:02;8.63;;;7.73;;
12407;SDS011;6268;48.188;17.134;2023-11-19T13:10:31;9.73;;;8.57;;
12407;SDS011;6268;48.188;17.134;2023-11-19T13:13:01;13.83;;;12.37;;
12407;SDS011;6268;48.188;17.134;2023-11-19T13:15:32;13.47;;;11.57;;
12407;SDS011;6268;48.188;17.134;2023-11-19T13:18:01;10.70;;;9.10;;
12407;SDS011;6268;48.188;17.134;2023-11-19T13:20:30;9.33;;;8.40;;
12407;SDS011;6268;48.188;17.134;2023-11-19T13:23:00;8.63;;;7.80;;
12407;SDS011;6268;48.188;17.134;2023-11-19T13:25:30;12.13;;;10.83;;
12407;SDS011;6268;48.188;17.134;2023-11-19T13:27:59;10.37;;;9.27;;
12407;SDS011;6268;48.188;17.134;2023-11-19T13:30:28;10.17;;;9.03;;
12407;SDS011;6268;48.188;17.134;2023-11-19T13:32:57;10.73;;;9.13;;
12407;SDS011;6268;48.188;17.134;2023-11-19T13:35:25;10.27;;;9.03;;
12407;SDS011;6268;48.188;17.134;2023-11-19T13:37:54;12.27;;;9.27;;
12407;SDS011;6268;48.188;17.134;2023-11-19T13:40:24;12.33;;;9.77;;
12407;SDS011;6268;48.188;17.134;2023-11-19T13:42:53;9.93;;;8.60;;
12407;SDS011;6268;48.188;17.134;2023-11-19T13:45:21;13.50;;;10.60;;
12407;SDS011;6268;48.188;17.134;2023-11-19T13:47:50;10.27;;;9.27;;
12407;SDS011;6268;48.188;17.134;2023-11-19T13:50:18;11.90;;;9.70;;
12407;SDS011;6268;48.188;17.134;2023-11-19T13:52:47;10.10;;;9.00;;
12407;SDS011;6268;48.188;17.134;2023-11-19T13:55:15;10.00;;;9.00;;
12407;SDS011;6268;48.188;17.134;2023-11-19T13:57:46;18.07;;;15.63;;
12407;SDS011;6268;48.188;17.134;2023-11-19T14:00:15;10.97;;;9.43;;
12407;SDS011;6268;48.188;17.134;2023-11-19T14:02:45;9.97;;;8.97;;
12407;SDS011;6268;48.188;17.134;2023-11-19T14:05:15;9.70;;;8.80;;
12407;SDS011;6268;48.188;17.134;2023-11-19T14:08:03;10.57;;;9.47;;
12407;SDS011;6268;48.188;17.134;2023-11-19T14:10:50;13.93;;;12.47;;
12407;SDS011;6268;48.188;17.134;2023-11-19T14:13:23;10.33;;;9.33;;
12407;SDS011;6268;48.188;17.134;2023-11-19T14:15:52;15.33;;;12.63;;
12407;SDS011;6268;48.188;17.134;2023-11-19T14:18:20;15.83;;;13.50;;
12407;SDS011;6268;48.188;17.134;2023-11-19T14:20:49;16.47;;;13.37;;
12407;SDS011;6268;48.188;17.134;2023-11-19T14:23:17;11.70;;;10.50;;
12407;SDS011;6268;48.188;17.134;2023-11-19T14:25:46;14.27;;;10.27;;
12407;SDS011;6268;48.188;17.134;2023-11-19T14:28:15;11.53;;;10.30;;
12407;SDS011;6268;48.188;17.134;2023-11-19T14:30:45;11.77;;;10.43;;
12407;SDS011;6268;48.188;17.134;2023-11-19T14:33:20;10.83;;;9.30;;
12407;SDS011;6268;48.188;17.134;2023-11-19T14:35:48;10.83;;;9.73;;
12407;SDS011;6268;48.188;17.134;2023-11-19T14:38:16;11.17;;;9.67;;
12407;SDS011;6268;48.188;17.134;2023-11-19T14:40:45;10.27;;;9.13;;
12407;SDS011;6268;48.188;17.134;2023-11-19T14:43:14;11.17;;;10.07;;
12407;SDS011;6268;48.188;17.134;2023-11-19T14:45:43;10.60;;;9.50;;
12407;SDS011;6268;48.188;17.134;2023-11-19T14:48:17;11.73;;;9.50;;
12407;SDS011;6268;48.188;17.134;2023-11-19T14:50:45;19.50;;;15.53;;
12407;SDS011;6268;48.188;17.134;2023-11-19T14:53:14;11.73;;;10.33;;
12407;SDS011;6268;48.188;17.134;2023-11-19T14:55:43;11.20;;;10.00;;
12407;SDS011;6268;48.188;17.134;2023-11-19T14:58:11;12.73;;;11.13;;